sensor_id;sensor_type;location;lat;lon;timestamp;P1;durP1;ratioP1;P2;durP2;ratioP2
5493;SDS011;2769;49.864;8.656;2023-03-25T00:02:02;1.57;;;1.00;;
5493;SDS011;2769;49.864;8.656;2023-03-25T00:04:31;2.10;;;1.17;;
5493;SDS011;2769;49.864;8.656;2023-03-25T00:07:00;2.00;;;0.97;;
5493;SDS011;2769;49.864;8.656;2023-03-25T00:09:29;0.90;;;0.77;;
5493;SDS011;2769;49.864;8.656;2023-03-25T00:11:56;2.97;;;0.80;;
5493;SDS011;2769;49.864;8.656;2023-03-25T00:14:24;0.80;;;0.80;;
5493;SDS011;2769;49.864;8.656;2023-03-25T00:16:52;0.80;;;0.80;;
5493;SDS011;2769;49.864;8.656;2023-03-25T00:19:21;3.23;;;1.00;;
5493;SDS011;2769;49.864;8.656;2023-03-25T00:21:51;3.87;;;0.80;;
5493;SDS011;2769;49.864;8.656;2023-03-25T00:24:19;2.53;;;0.83;;
5493;SDS011;2769;49.864;8.656;2023-03-25T00:26:47;0.67;;;0.67;;
5493;SDS011;2769;49.864;8.656;2023-03-25T00:29:15;0.70;;;0.70;;
5493;SDS011;2769;49.864;8.656;2023-03-25T00:31:43;0.70;;;0.70;;
5493;SDS011;2769;49.864;8.656;2023-03-25T00:34:11;1.23;;;1.00;;
5493;SDS011;2769;49.864;8.656;2023-03-25T00:36:41;1.43;;;0.77;;
5493;SDS011;2769;49.864;8.656;2023-03-25T00:39:09;1.57;;;0.87;;
5493;SDS011;2769;49.864;8.656;2023-03-25T00:41:38;0.80;;;0.70;;
5493;SDS011;2769;49.864;8.656;2023-03-25T00:44:08;1.50;;;0.80;;
5493;SDS011;2769;49.864;8.656;2023-03-25T00:46:39;1.07;;;0.80;;
5493;SDS011;2769;49.864;8.656;2023-03-25T00:49:07;2.97;;;1.00;;
5493;SDS011;2769;49.864;8.656;2023-03-25T00:51:36;2.40;;;0.83;;
5493;SDS011;2769;49.864;8.656;2023-03-25T00:54:20;2.20;;;0.90;;
5493;SDS011;2769;49.864;8.656;2023-03-25T00:56:48;1.00;;;0.73;;
5493;SDS011;2769;49.864;8.656;2023-03-25T00:59:16;1.17;;;0.90;;
5493;SDS011;2769;49.864;8.656;2023-03-25T01:01:44;1.93;;;0.80;;
5493;SDS011;2769;49.864;8.656;2023-03-25T01:04:14;0.90;;;0.80;;
5493;SDS011;2769;49.864;8.656;2023-03-25T01:06:42;2.90;;;1.30;;
5493;SDS011;2769;49.864;8.656;2023-03-25T01:09:11;2.90;;;0.90;;
5493;SDS011;2769;49.864;8.656;2023-03-25T01:11:43;0.80;;;0.80;;
5493;SDS011;2769;49.864;8.656;2023-03-25T01:14:12;1.53;;;1.10;;
5493;SDS011;2769;49.864;8.656;2023-03-25T01:16:42;1.33;;;0.70;;
5493;SDS011;2769;49.864;8.656;2023-03-25T01:19:11;1.00;;;0.77;;
5493;SDS011;2769;49.864;8.656;2023-03-25T01:21:39;2.67;;;1.37;;
5493;SDS011;2769;49.864;8.656;2023-03-25T01:24:09;2.50;;;1.03;;
5493;SDS011;2769;49.864;8.656;2023-03-25T01:26:39;6.30;;;1.10;;
5493;SDS011;2769;49.864;8.656;2023-03-25T01:29:10;3.17;;;1.37;;
5493;SDS011;2769;49.864;8.656;2023-03-25T01:31:41;1.80;;;1.10;;
5493;SDS011;2769;49.864;8.656;2023-03-25T01:34:10;2.83;;;1.30;;
5493;SDS011;2769;49.864;8.656;2023-03-25T01:36:38;8.23;;;1.60;;
5493;SDS011;2769;49.864;8.656;2023-03-25T01:39:07;3.43;;;1.60;;
5493;SDS011;2769;49.864;8.656;2023-03-25T01:41:35;1.80;;;1.30;;
5493;SDS011;2769;49.864;8.656;2023-03-25T01:47:24;7.10;;;1.80;;
5493;SDS011;2769;49.864;8.656;2023-03-25T01:49:52;5.90;;;1.40;;
5493;SDS011;2769;49.864;8.656;2023-03-25T01:52:22;4.00;;;1.43;;
5493;SDS011;2769;49.864;8.656;2023-03-25T01:54:52;2.03;;;1.17;;
5493;SDS011;2769;49.864;8.656;2023-03-25T01:57:21;2.03;;;1.27;;
5493;SDS011;2769;49.864;8.656;2023-03-25T01:59:52;5.13;;;1.57;;
5493;SDS011;2769;49.864;8.656;2023-03-25T02:02:20;2.70;;;1.10;;
5493;SDS011;2769;49.864;8.656;2023-03-25T02:04:52;2.70;;;1.23;;
5493;SDS011;2769;49.864;8.656;2023-03-25T02:07:28;3.90;;;1.20;;
5493;SDS011;2769;49.864;8.656;2023-03-25T02:09:58;2.80;;;1.00;;
5493;SDS011;2769;49.864;8.656;2023-03-25T02:12:27;2.83;;;1.20;;
5493;SDS011;2769;49.864;8.656;2023-03-25T02:14:55;4.30;;;1.20;;
5493;SDS011;2769;49.864;8.656;2023-03-25T02:17:26;6.33;;;1.73;;
5493;SDS011;2769;49.864;8.656;2023-03-25T02:23:06;2.30;;;1.17;;
5493;SDS011;2769;49.864;8.656;2023-03-25T02:26:04;6.00;;;1.30;;
5493;SDS011;2769;49.864;8.656;2023-03-25T02:28:44;3.03;;;0.90;;
5493;SDS011;2769;49.864;8.656;2023-03-25T02:31:17;2.37;;;1.23;;
5493;SDS011;2769;49.864;8.656;2023-03-25T02:34:01;2.10;;;1.00;;
5493;SDS011;2769;49.864;8.656;2023-03-25T02:39:49;4.40;;;1.00;;
5493;SDS011;2769;49.864;8.656;2023-03-25T02:42:22;1.80;;;1.03;;
5493;SDS011;2769;49.864;8.656;2023-03-25T02:44:53;1.37;;;1.00;;
5493;SDS011;2769;49.864;8.656;2023-03-25T02:47:25;3.37;;;1.10;;
5493;SDS011;2769;49.864;8.656;2023-03-25T02:49:56;1.03;;;0.80;;
5493;SDS011;2769;49.864;8.656;2023-03-25T02:52:27;1.23;;;1.00;;
5493;SDS011;2769;49.864;8.656;2023-03-25T02:54:58;1.13;;;0.90;;
5493;SDS011;2769;49.864;8.656;2023-03-25T02:57:31;1.60;;;0.83;;
5493;SDS011;2769;49.864;8.656;2023-03-25T03:00:02;2.43;;;0.77;;
5493;SDS011;2769;49.864;8.656;2023-03-25T03:02:35;3.50;;;0.70;;
5493;SDS011;2769;49.864;8.656;2023-03-25T03:05:18;1.23;;;0.60;;
5493;SDS011;2769;49.864;8.656;2023-03-25T03:07:49;1.23;;;0.60;;
5493;SDS011;2769;49.864;8.656;2023-03-25T03:10:22;3.30;;;0.90;;
5493;SDS011;2769;49.864;8.656;2023-03-25T03:12:55;0.53;;;0.53;;
5493;SDS011;2769;49.864;8.656;2023-03-25T03:15:32;0.80;;;0.80;;
5493;SDS011;2769;49.864;8.656;2023-03-25T03:18:07;0.97;;;0.80;;
5493;SDS011;2769;49.864;8.656;2023-03-25T03:20:40;0.90;;;0.90;;
5493;SDS011;2769;49.864;8.656;2023-03-25T03:23:12;1.77;;;0.70;;
5493;SDS011;2769;49.864;8.656;2023-03-25T03:25:48;0.70;;;0.70;;
5493;SDS011;2769;49.864;8.656;2023-03-25T03:28:21;0.90;;;0.73;;
5493;SDS011;2769;49.864;8.656;2023-03-25T03:30:51;1.00;;;0.70;;
5493;SDS011;2769;49.864;8.656;2023-03-25T03:33:24;0.87;;;0.70;;
5493;SDS011;2769;49.864;8.656;2023-03-25T03:35:55;1.10;;;0.90;;
5493;SDS011;2769;49.864;8.656;2023-03-25T03:38:28;0.70;;;0.70;;
5493;SDS011;2769;49.864;8.656;2023-03-25T03:41:03;1.53;;;0.80;;
5493;SDS011;2769;49.864;8.656;2023-03-25T03:43:34;2.07;;;1.37;;
5493;SDS011;2769;49.864;8.656;2023-03-25T03:46:06;1.83;;;0.80;;
5493;SDS011;2769;49.864;8.656;2023-03-25T03:48:37;1.60;;;0.90;;
5493;SDS011;2769;49.864;8.656;2023-03-25T03:51:08;0.93;;;0.70;;
5493;SDS011;2769;49.864;8.656;2023-03-25T03:53:38;1.07;;;0.97;;
5493;SDS011;2769;49.864;8.656;2023-03-25T03:56:10;1.30;;;0.97;;
5493;SDS011;2769;49.864;8.656;2023-03-25T03:58:40;1.30;;;1.20;;
5493;SDS011;2769;49.864;8.656;2023-03-25T04:01:10;1.53;;;0.80;;
5493;SDS011;2769;49.864;8.656;2023-03-25T04:03:42;2.13;;;0.90;;
5493;SDS011;2769;49.864;8.656;2023-03-25T04:06:15;0.80;;;0.80;;
5493;SDS011;2769;49.864;8.656;2023-03-25T04:08:48;1.13;;;0.80;;
5493;SDS011;2769;49.864;8.656;2023-03-25T04:11:25;1.20;;;1.03;;
5493;SDS011;2769;49.864;8.656;2023-03-25T04:13:56;1.53;;;1.10;;
5493;SDS011;2769;49.864;8.656;2023-03-25T04:16:25;2.10;;;1.00;;
5493;SDS011;2769;49.864;8.656;2023-03-25T04:18:53;3.53;;;1.00;;
5493;SDS011;2769;49.864;8.656;2023-03-25T04:21:23;1.83;;;1.00;;
5493;SDS011;2769;49.864;8.656;2023-03-25T04:23:54;1.03;;;0.90;;
5493;SDS011;2769;49.864;8.656;2023-03-25T04:26:22;1.37;;;1.00;;
5493;SDS011;2769;49.864;8.656;2023-03-25T04:28:51;5.17;;;1.03;;
5493;SDS011;2769;49.864;8.656;2023-03-25T04:31:19;1.27;;;1.00;;
5493;SDS011;2769;49.864;8.656;2023-03-25T04:33:47;5.10;;;1.10;;
5493;SDS011;2769;49.864;8.656;2023-03-25T04:36:16;2.50;;;1.13;;
5493;SDS011;2769;49.864;8.656;2023-03-25T04:38:44;1.13;;;1.10;;
5493;SDS011;2769;49.864;8.656;2023-03-25T04:41:12;4.17;;;1.07;;
5493;SDS011;2769;49.864;8.656;2023-03-25T04:43:40;4.00;;;1.33;;
5493;SDS011;2769;49.864;8.656;2023-03-25T04:46:13;1.53;;;1.07;;
5493;SDS011;2769;49.864;8.656;2023-03-25T04:48:42;1.43;;;1.00;;
5493;SDS011;2769;49.864;8.656;2023-03-25T04:51:12;2.40;;;1.10;;
5493;SDS011;2769;49.864;8.656;2023-03-25T04:53:40;3.70;;;1.10;;
5493;SDS011;2769;49.864;8.656;2023-03-25T04:56:11;4.23;;;0.80;;
5493;SDS011;2769;49.864;8.656;2023-03-25T04:58:41;3.80;;;1.37;;
5493;SDS011;2769;49.864;8.656;2023-03-25T05:01:10;0.90;;;0.90;;
5493;SDS011;2769;49.864;8.656;2023-03-25T05:03:44;4.40;;;1.10;;
5493;SDS011;2769;49.864;8.656;2023-03-25T05:06:15;1.87;;;1.00;;
5493;SDS011;2769;49.864;8.656;2023-03-25T05:08:43;2.10;;;1.10;;
5493;SDS011;2769;49.864;8.656;2023-03-25T05:11:11;4.03;;;1.23;;
5493;SDS011;2769;49.864;8.656;2023-03-25T05:13:39;1.33;;;1.17;;
5493;SDS011;2769;49.864;8.656;2023-03-25T05:16:07;1.40;;;1.30;;
5493;SDS011;2769;49.864;8.656;2023-03-25T05:18:36;3.63;;;1.10;;
5493;SDS011;2769;49.864;8.656;2023-03-25T05:21:05;0.80;;;0.80;;
5493;SDS011;2769;49.864;8.656;2023-03-25T05:23:33;2.13;;;1.03;;
5493;SDS011;2769;49.864;8.656;2023-03-25T05:26:01;2.70;;;1.30;;
5493;SDS011;2769;49.864;8.656;2023-03-25T05:28:29;1.43;;;1.07;;
5493;SDS011;2769;49.864;8.656;2023-03-25T05:30:57;1.00;;;0.90;;
5493;SDS011;2769;49.864;8.656;2023-03-25T05:33:25;5.60;;;1.23;;
5493;SDS011;2769;49.864;8.656;2023-03-25T05:35:55;3.00;;;1.23;;
5493;SDS011;2769;49.864;8.656;2023-03-25T05:38:23;2.13;;;1.30;;
5493;SDS011;2769;49.864;8.656;2023-03-25T05:40:51;3.60;;;1.10;;
5493;SDS011;2769;49.864;8.656;2023-03-25T05:43:19;2.93;;;1.00;;
5493;SDS011;2769;49.864;8.656;2023-03-25T05:45:49;7.07;;;1.40;;
5493;SDS011;2769;49.864;8.656;2023-03-25T05:48:19;3.00;;;1.40;;
5493;SDS011;2769;49.864;8.656;2023-03-25T05:50:46;1.67;;;0.97;;
5493;SDS011;2769;49.864;8.656;2023-03-25T05:53:16;2.37;;;1.17;;
5493;SDS011;2769;49.864;8.656;2023-03-25T05:55:46;8.77;;;1.30;;
5493;SDS011;2769;49.864;8.656;2023-03-25T05:58:17;3.03;;;1.40;;
5493;SDS011;2769;49.864;8.656;2023-03-25T06:00:45;5.83;;;1.20;;
5493;SDS011;2769;49.864;8.656;2023-03-25T06:03:14;3.00;;;1.53;;
5493;SDS011;2769;49.864;8.656;2023-03-25T06:05:43;3.33;;;1.23;;
5493;SDS011;2769;49.864;8.656;2023-03-25T06:08:12;3.70;;;1.30;;
5493;SDS011;2769;49.864;8.656;2023-03-25T06:10:42;6.83;;;1.20;;
5493;SDS011;2769;49.864;8.656;2023-03-25T06:13:11;6.83;;;1.43;;
5493;SDS011;2769;49.864;8.656;2023-03-25T06:15:39;3.67;;;1.40;;
5493;SDS011;2769;49.864;8.656;2023-03-25T06:18:07;2.03;;;1.30;;
5493;SDS011;2769;49.864;8.656;2023-03-25T06:20:36;4.60;;;1.50;;
5493;SDS011;2769;49.864;8.656;2023-03-25T06:23:03;1.73;;;1.20;;
5493;SDS011;2769;49.864;8.656;2023-03-25T06:25:31;1.53;;;1.07;;
5493;SDS011;2769;49.864;8.656;2023-03-25T06:28:01;2.50;;;1.20;;
5493;SDS011;2769;49.864;8.656;2023-03-25T06:30:29;3.27;;;1.30;;
5493;SDS011;2769;49.864;8.656;2023-03-25T06:32:57;1.63;;;1.17;;
5493;SDS011;2769;49.864;8.656;2023-03-25T06:35:28;3.33;;;1.60;;
5493;SDS011;2769;49.864;8.656;2023-03-25T06:37:56;4.07;;;1.63;;
5493;SDS011;2769;49.864;8.656;2023-03-25T06:40:43;4.23;;;1.30;;
5493;SDS011;2769;49.864;8.656;2023-03-25T06:43:14;3.70;;;2.53;;
5493;SDS011;2769;49.864;8.656;2023-03-25T06:46:08;4.57;;;1.70;;
5493;SDS011;2769;49.864;8.656;2023-03-25T06:48:59;2.07;;;1.20;;
5493;SDS011;2769;49.864;8.656;2023-03-25T06:51:27;3.73;;;1.30;;
5493;SDS011;2769;49.864;8.656;2023-03-25T06:53:55;4.83;;;1.60;;
5493;SDS011;2769;49.864;8.656;2023-03-25T06:56:23;5.03;;;1.40;;
5493;SDS011;2769;49.864;8.656;2023-03-25T06:58:52;3.37;;;1.30;;
5493;SDS011;2769;49.864;8.656;2023-03-25T07:01:23;6.27;;;2.00;;
5493;SDS011;2769;49.864;8.656;2023-03-25T07:03:51;3.30;;;1.40;;
5493;SDS011;2769;49.864;8.656;2023-03-25T07:06:20;3.53;;;1.20;;
5493;SDS011;2769;49.864;8.656;2023-03-25T07:08:49;2.53;;;1.30;;
5493;SDS011;2769;49.864;8.656;2023-03-25T07:11:18;5.20;;;1.30;;
5493;SDS011;2769;49.864;8.656;2023-03-25T07:13:50;3.70;;;1.50;;
5493;SDS011;2769;49.864;8.656;2023-03-25T07:16:21;3.17;;;1.20;;
5493;SDS011;2769;49.864;8.656;2023-03-25T07:18:50;3.87;;;1.47;;
5493;SDS011;2769;49.864;8.656;2023-03-25T07:21:18;4.77;;;1.40;;
5493;SDS011;2769;49.864;8.656;2023-03-25T07:23:46;3.07;;;1.83;;
5493;SDS011;2769;49.864;8.656;2023-03-25T07:26:14;5.03;;;1.60;;
5493;SDS011;2769;49.864;8.656;2023-03-25T07:28:42;2.80;;;1.50;;
5493;SDS011;2769;49.864;8.656;2023-03-25T07:31:11;4.60;;;1.93;;
5493;SDS011;2769;49.864;8.656;2023-03-25T07:33:41;4.40;;;1.80;;
5493;SDS011;2769;49.864;8.656;2023-03-25T07:36:10;8.77;;;2.00;;
5493;SDS011;2769;49.864;8.656;2023-03-25T07:38:39;8.43;;;2.27;;
5493;SDS011;2769;49.864;8.656;2023-03-25T07:41:07;12.70;;;1.70;;
5493;SDS011;2769;49.864;8.656;2023-03-25T07:43:40;4.53;;;1.70;;
5493;SDS011;2769;49.864;8.656;2023-03-25T07:46:18;5.23;;;1.70;;
5493;SDS011;2769;49.864;8.656;2023-03-25T07:48:47;11.00;;;1.77;;
5493;SDS011;2769;49.864;8.656;2023-03-25T07:51:15;4.30;;;1.80;;
5493;SDS011;2769;49.864;8.656;2023-03-25T07:53:43;7.70;;;1.70;;
5493;SDS011;2769;49.864;8.656;2023-03-25T07:56:11;26.33;;;2.13;;
5493;SDS011;2769;49.864;8.656;2023-03-25T07:58:40;9.00;;;1.83;;
5493;SDS011;2769;49.864;8.656;2023-03-25T08:01:09;12.93;;;3.17;;
5493;SDS011;2769;49.864;8.656;2023-03-25T08:03:38;8.30;;;1.70;;
5493;SDS011;2769;49.864;8.656;2023-03-25T08:06:08;9.07;;;2.30;;
5493;SDS011;2769;49.864;8.656;2023-03-25T08:08:35;5.50;;;1.90;;
5493;SDS011;2769;49.864;8.656;2023-03-25T08:11:04;6.83;;;1.90;;
5493;SDS011;2769;49.864;8.656;2023-03-25T08:13:32;4.63;;;1.80;;
5493;SDS011;2769;49.864;8.656;2023-03-25T08:16:00;4.97;;;1.70;;
5493;SDS011;2769;49.864;8.656;2023-03-25T08:18:28;7.40;;;2.10;;
5493;SDS011;2769;49.864;8.656;2023-03-25T08:20:55;7.77;;;2.47;;
5493;SDS011;2769;49.864;8.656;2023-03-25T08:23:25;6.90;;;1.90;;
5493;SDS011;2769;49.864;8.656;2023-03-25T08:25:53;10.20;;;1.80;;
5493;SDS011;2769;49.864;8.656;2023-03-25T08:28:21;9.80;;;2.30;;
5493;SDS011;2769;49.864;8.656;2023-03-25T08:30:49;11.77;;;2.50;;
5493;SDS011;2769;49.864;8.656;2023-03-25T08:33:21;3.37;;;1.40;;
5493;SDS011;2769;49.864;8.656;2023-03-25T08:35:55;6.73;;;1.80;;
5493;SDS011;2769;49.864;8.656;2023-03-25T08:38:24;6.43;;;1.77;;
5493;SDS011;2769;49.864;8.656;2023-03-25T08:41:00;6.27;;;2.13;;
5493;SDS011;2769;49.864;8.656;2023-03-25T08:43:28;9.77;;;1.80;;
5493;SDS011;2769;49.864;8.656;2023-03-25T08:45:56;7.17;;;1.73;;
5493;SDS011;2769;49.864;8.656;2023-03-25T08:48:24;9.80;;;2.10;;
5493;SDS011;2769;49.864;8.656;2023-03-25T08:50:52;4.10;;;1.50;;
5493;SDS011;2769;49.864;8.656;2023-03-25T08:53:19;3.57;;;1.50;;
5493;SDS011;2769;49.864;8.656;2023-03-25T08:55:52;12.60;;;2.70;;
5493;SDS011;2769;49.864;8.656;2023-03-25T08:58:21;4.27;;;1.50;;
5493;SDS011;2769;49.864;8.656;2023-03-25T09:00:49;7.53;;;1.67;;
5493;SDS011;2769;49.864;8.656;2023-03-25T09:03:20;4.77;;;1.63;;
5493;SDS011;2769;49.864;8.656;2023-03-25T09:05:49;5.67;;;1.90;;
5493;SDS011;2769;49.864;8.656;2023-03-25T09:08:18;8.50;;;1.73;;
5493;SDS011;2769;49.864;8.656;2023-03-25T09:10:47;5.93;;;2.07;;
5493;SDS011;2769;49.864;8.656;2023-03-25T09:13:17;3.17;;;1.80;;
5493;SDS011;2769;49.864;8.656;2023-03-25T09:15:47;8.70;;;1.70;;
5493;SDS011;2769;49.864;8.656;2023-03-25T09:18:16;10.20;;;2.07;;
5493;SDS011;2769;49.864;8.656;2023-03-25T09:20:46;11.30;;;2.00;;
5493;SDS011;2769;49.864;8.656;2023-03-25T09:23:15;3.20;;;1.70;;
5493;SDS011;2769;49.864;8.656;2023-03-25T09:25:45;13.10;;;2.10;;
5493;SDS011;2769;49.864;8.656;2023-03-25T09:28:16;6.60;;;1.73;;
5493;SDS011;2769;49.864;8.656;2023-03-25T09:30:45;5.77;;;1.80;;
5493;SDS011;2769;49.864;8.656;2023-03-25T09:33:19;3.60;;;1.50;;
5493;SDS011;2769;49.864;8.656;2023-03-25T09:35:49;6.57;;;1.50;;
5493;SDS011;2769;49.864;8.656;2023-03-25T09:38:17;4.80;;;1.47;;
5493;SDS011;2769;49.864;8.656;2023-03-25T09:40:45;3.53;;;1.40;;
5493;SDS011;2769;49.864;8.656;2023-03-25T09:43:21;10.13;;;2.20;;
5493;SDS011;2769;49.864;8.656;2023-03-25T09:45:53;2.93;;;1.33;;
5493;SDS011;2769;49.864;8.656;2023-03-25T09:48:25;3.10;;;1.33;;
5493;SDS011;2769;49.864;8.656;2023-03-25T09:50:56;4.00;;;1.60;;
5493;SDS011;2769;49.864;8.656;2023-03-25T09:53:28;7.23;;;1.40;;
5493;SDS011;2769;49.864;8.656;2023-03-25T09:55:59;5.50;;;1.57;;
5493;SDS011;2769;49.864;8.656;2023-03-25T09:58:33;4.40;;;2.20;;
5493;SDS011;2769;49.864;8.656;2023-03-25T10:01:10;6.50;;;1.83;;
5493;SDS011;2769;49.864;8.656;2023-03-25T10:03:58;4.67;;;1.50;;
5493;SDS011;2769;49.864;8.656;2023-03-25T10:06:31;11.20;;;1.77;;
5493;SDS011;2769;49.864;8.656;2023-03-25T10:09:15;5.30;;;1.70;;
5493;SDS011;2769;49.864;8.656;2023-03-25T10:11:52;2.67;;;1.37;;
5493;SDS011;2769;49.864;8.656;2023-03-25T10:14:26;4.43;;;1.83;;
5493;SDS011;2769;49.864;8.656;2023-03-25T10:16:58;1.57;;;1.10;;
5493;SDS011;2769;49.864;8.656;2023-03-25T10:19:34;3.20;;;1.70;;
5493;SDS011;2769;49.864;8.656;2023-03-25T10:22:10;2.30;;;1.37;;
5493;SDS011;2769;49.864;8.656;2023-03-25T10:24:43;4.37;;;1.63;;
5493;SDS011;2769;49.864;8.656;2023-03-25T10:27:14;1.60;;;1.00;;
5493;SDS011;2769;49.864;8.656;2023-03-25T10:29:48;2.87;;;0.80;;
5493;SDS011;2769;49.864;8.656;2023-03-25T10:32:21;1.80;;;1.00;;
5493;SDS011;2769;49.864;8.656;2023-03-25T10:34:55;4.23;;;1.20;;
5493;SDS011;2769;49.864;8.656;2023-03-25T10:37:25;1.20;;;0.87;;
5493;SDS011;2769;49.864;8.656;2023-03-25T10:39:56;1.07;;;1.00;;
5493;SDS011;2769;49.864;8.656;2023-03-25T10:42:28;3.00;;;1.00;;
5493;SDS011;2769;49.864;8.656;2023-03-25T10:45:07;2.40;;;0.87;;
5493;SDS011;2769;49.864;8.656;2023-03-25T10:47:39;4.10;;;1.07;;
5493;SDS011;2769;49.864;8.656;2023-03-25T10:50:08;1.90;;;1.10;;
5493;SDS011;2769;49.864;8.656;2023-03-25T10:52:41;8.70;;;1.20;;
5493;SDS011;2769;49.864;8.656;2023-03-25T10:55:12;3.87;;;1.10;;
5493;SDS011;2769;49.864;8.656;2023-03-25T10:57:49;3.40;;;1.50;;
5493;SDS011;2769;49.864;8.656;2023-03-25T11:00:20;2.10;;;1.00;;
5493;SDS011;2769;49.864;8.656;2023-03-25T11:02:52;1.17;;;0.90;;
5493;SDS011;2769;49.864;8.656;2023-03-25T11:05:23;7.20;;;1.37;;
5493;SDS011;2769;49.864;8.656;2023-03-25T11:07:53;2.30;;;1.17;;
5493;SDS011;2769;49.864;8.656;2023-03-25T11:10:23;2.90;;;1.00;;
5493;SDS011;2769;49.864;8.656;2023-03-25T11:12:52;2.20;;;1.20;;
5493;SDS011;2769;49.864;8.656;2023-03-25T11:15:28;3.70;;;0.80;;
5493;SDS011;2769;49.864;8.656;2023-03-25T11:17:59;1.43;;;0.90;;
5493;SDS011;2769;49.864;8.656;2023-03-25T11:20:29;1.17;;;0.90;;
5493;SDS011;2769;49.864;8.656;2023-03-25T11:23:04;2.00;;;1.00;;
5493;SDS011;2769;49.864;8.656;2023-03-25T11:25:35;5.10;;;1.30;;
5493;SDS011;2769;49.864;8.656;2023-03-25T11:28:08;3.57;;;1.03;;
5493;SDS011;2769;49.864;8.656;2023-03-25T11:30:39;2.93;;;0.93;;
5493;SDS011;2769;49.864;8.656;2023-03-25T11:33:38;3.50;;;1.20;;
5493;SDS011;2769;49.864;8.656;2023-03-25T11:36:11;2.10;;;1.00;;
5493;SDS011;2769;49.864;8.656;2023-03-25T11:38:44;1.33;;;1.20;;
5493;SDS011;2769;49.864;8.656;2023-03-25T11:41:13;9.10;;;1.70;;
5493;SDS011;2769;49.864;8.656;2023-03-25T11:43:41;2.87;;;1.10;;
5493;SDS011;2769;49.864;8.656;2023-03-25T11:46:11;5.70;;;1.03;;
5493;SDS011;2769;49.864;8.656;2023-03-25T11:48:41;2.90;;;1.10;;
5493;SDS011;2769;49.864;8.656;2023-03-25T11:51:11;2.23;;;1.33;;
5493;SDS011;2769;49.864;8.656;2023-03-25T11:53:43;1.17;;;0.87;;
5493;SDS011;2769;49.864;8.656;2023-03-25T11:56:14;3.33;;;0.90;;
5493;SDS011;2769;49.864;8.656;2023-03-25T11:58:45;1.80;;;0.90;;
5493;SDS011;2769;49.864;8.656;2023-03-25T12:01:21;1.20;;;0.90;;
5493;SDS011;2769;49.864;8.656;2023-03-25T12:03:51;0.70;;;0.70;;
5493;SDS011;2769;49.864;8.656;2023-03-25T12:06:20;1.57;;;0.80;;
5493;SDS011;2769;49.864;8.656;2023-03-25T12:08:49;1.83;;;0.90;;
5493;SDS011;2769;49.864;8.656;2023-03-25T12:11:19;1.47;;;1.27;;
5493;SDS011;2769;49.864;8.656;2023-03-25T12:13:54;1.00;;;0.83;;
5493;SDS011;2769;49.864;8.656;2023-03-25T12:16:35;2.83;;;1.07;;
5493;SDS011;2769;49.864;8.656;2023-03-25T12:19:10;1.10;;;1.00;;
5493;SDS011;2769;49.864;8.656;2023-03-25T12:21:47;1.87;;;1.10;;
5493;SDS011;2769;49.864;8.656;2023-03-25T12:24:27;0.80;;;0.80;;
5493;SDS011;2769;49.864;8.656;2023-03-25T12:27:07;3.00;;;1.10;;
5493;SDS011;2769;49.864;8.656;2023-03-25T12:29:44;1.37;;;1.00;;
5493;SDS011;2769;49.864;8.656;2023-03-25T12:32:22;2.80;;;0.80;;
5493;SDS011;2769;49.864;8.656;2023-03-25T12:34:58;1.90;;;1.17;;
5493;SDS011;2769;49.864;8.656;2023-03-25T12:37:34;1.70;;;1.03;;
5493;SDS011;2769;49.864;8.656;2023-03-25T12:40:15;3.23;;;1.00;;
5493;SDS011;2769;49.864;8.656;2023-03-25T12:42:50;4.67;;;1.20;;
5493;SDS011;2769;49.864;8.656;2023-03-25T12:45:31;3.97;;;1.20;;
5493;SDS011;2769;49.864;8.656;2023-03-25T12:48:09;1.57;;;0.97;;
5493;SDS011;2769;49.864;8.656;2023-03-25T12:50:44;2.20;;;1.00;;
5493;SDS011;2769;49.864;8.656;2023-03-25T12:53:21;4.03;;;1.50;;
5493;SDS011;2769;49.864;8.656;2023-03-25T12:55:59;3.30;;;1.53;;
5493;SDS011;2769;49.864;8.656;2023-03-25T12:58:41;6.37;;;2.20;;
5493;SDS011;2769;49.864;8.656;2023-03-25T13:01:18;5.80;;;1.50;;
5493;SDS011;2769;49.864;8.656;2023-03-25T13:03:57;1.67;;;1.03;;
5493;SDS011;2769;49.864;8.656;2023-03-25T13:06:37;2.90;;;1.00;;
5493;SDS011;2769;49.864;8.656;2023-03-25T13:09:08;3.27;;;1.20;;
5493;SDS011;2769;49.864;8.656;2023-03-25T13:11:38;2.00;;;0.90;;
5493;SDS011;2769;49.864;8.656;2023-03-25T13:14:09;4.27;;;1.07;;
5493;SDS011;2769;49.864;8.656;2023-03-25T13:16:41;5.30;;;1.00;;
5493;SDS011;2769;49.864;8.656;2023-03-25T13:19:13;3.03;;;0.70;;
5493;SDS011;2769;49.864;8.656;2023-03-25T13:21:44;2.87;;;1.00;;
5493;SDS011;2769;49.864;8.656;2023-03-25T13:24:16;1.67;;;1.20;;
5493;SDS011;2769;49.864;8.656;2023-03-25T13:26:46;2.97;;;1.10;;
5493;SDS011;2769;49.864;8.656;2023-03-25T13:29:17;2.17;;;1.30;;
5493;SDS011;2769;49.864;8.656;2023-03-25T13:31:50;1.23;;;1.13;;
5493;SDS011;2769;49.864;8.656;2023-03-25T13:34:21;3.73;;;1.20;;
5493;SDS011;2769;49.864;8.656;2023-03-25T13:37:00;2.60;;;0.97;;
5493;SDS011;2769;49.864;8.656;2023-03-25T13:39:48;2.03;;;0.90;;
5493;SDS011;2769;49.864;8.656;2023-03-25T13:42:21;4.17;;;1.00;;
5493;SDS011;2769;49.864;8.656;2023-03-25T13:44:53;6.10;;;1.20;;
5493;SDS011;2769;49.864;8.656;2023-03-25T13:47:24;2.27;;;1.00;;
5493;SDS011;2769;49.864;8.656;2023-03-25T13:50:00;2.07;;;1.13;;
5493;SDS011;2769;49.864;8.656;2023-03-25T13:52:32;1.70;;;1.20;;
5493;SDS011;2769;49.864;8.656;2023-03-25T13:55:04;4.37;;;1.30;;
5493;SDS011;2769;49.864;8.656;2023-03-25T13:57:50;1.90;;;1.10;;
5493;SDS011;2769;49.864;8.656;2023-03-25T14:04:04;2.63;;;1.10;;
5493;SDS011;2769;49.864;8.656;2023-03-25T14:07:02;1.90;;;1.10;;
5493;SDS011;2769;49.864;8.656;2023-03-25T14:09:45;3.60;;;1.10;;
5493;SDS011;2769;49.864;8.656;2023-03-25T14:12:37;3.07;;;1.30;;
5493;SDS011;2769;49.864;8.656;2023-03-25T14:15:09;2.30;;;0.90;;
5493;SDS011;2769;49.864;8.656;2023-03-25T14:17:39;1.73;;;1.30;;
5493;SDS011;2769;49.864;8.656;2023-03-25T14:20:11;1.63;;;1.00;;
5493;SDS011;2769;49.864;8.656;2023-03-25T14:22:45;2.30;;;1.23;;
5493;SDS011;2769;49.864;8.656;2023-03-25T14:25:18;2.90;;;1.30;;
5493;SDS011;2769;49.864;8.656;2023-03-25T14:27:48;3.07;;;1.20;;
5493;SDS011;2769;49.864;8.656;2023-03-25T14:30:18;1.60;;;0.80;;
5493;SDS011;2769;49.864;8.656;2023-03-25T14:32:47;1.57;;;1.47;;
5493;SDS011;2769;49.864;8.656;2023-03-25T14:44:32;1.07;;;0.83;;
5493;SDS011;2769;49.864;8.656;2023-03-25T14:50:00;2.73;;;1.10;;
5493;SDS011;2769;49.864;8.656;2023-03-25T14:52:31;1.90;;;1.13;;
5493;SDS011;2769;49.864;8.656;2023-03-25T14:55:05;1.10;;;0.97;;
5493;SDS011;2769;49.864;8.656;2023-03-25T14:57:38;2.93;;;1.20;;
5493;SDS011;2769;49.864;8.656;2023-03-25T15:00:07;4.40;;;1.20;;
5493;SDS011;2769;49.864;8.656;2023-03-25T15:02:39;4.20;;;1.27;;
5493;SDS011;2769;49.864;8.656;2023-03-25T15:05:13;2.03;;;1.00;;
5493;SDS011;2769;49.864;8.656;2023-03-25T15:07:44;1.43;;;1.00;;
5493;SDS011;2769;49.864;8.656;2023-03-25T15:10:21;2.03;;;0.80;;
5493;SDS011;2769;49.864;8.656;2023-03-25T15:12:52;2.60;;;1.00;;
5493;SDS011;2769;49.864;8.656;2023-03-25T15:15:24;4.70;;;1.10;;
5493;SDS011;2769;49.864;8.656;2023-03-25T15:17:54;2.80;;;1.20;;
5493;SDS011;2769;49.864;8.656;2023-03-25T15:20:29;2.10;;;0.90;;
5493;SDS011;2769;49.864;8.656;2023-03-25T15:26:10;3.80;;;1.27;;
5493;SDS011;2769;49.864;8.656;2023-03-25T15:28:49;3.57;;;1.10;;
5493;SDS011;2769;49.864;8.656;2023-03-25T15:31:44;6.73;;;1.17;;
5493;SDS011;2769;49.864;8.656;2023-03-25T15:34:28;8.97;;;1.73;;
5493;SDS011;2769;49.864;8.656;2023-03-25T15:40:15;3.17;;;0.80;;
5493;SDS011;2769;49.864;8.656;2023-03-25T15:42:59;3.33;;;0.93;;
5493;SDS011;2769;49.864;8.656;2023-03-25T15:45:50;3.20;;;1.10;;
5493;SDS011;2769;49.864;8.656;2023-03-25T15:48:47;2.07;;;1.00;;
5493;SDS011;2769;49.864;8.656;2023-03-25T15:51:26;2.00;;;1.20;;
5493;SDS011;2769;49.864;8.656;2023-03-25T15:54:24;4.93;;;1.17;;
5493;SDS011;2769;49.864;8.656;2023-03-25T15:56:56;5.77;;;1.30;;
5493;SDS011;2769;49.864;8.656;2023-03-25T15:59:29;3.03;;;0.90;;
5493;SDS011;2769;49.864;8.656;2023-03-25T16:02:02;2.80;;;0.87;;
5493;SDS011;2769;49.864;8.656;2023-03-25T16:04:31;1.53;;;1.00;;
5493;SDS011;2769;49.864;8.656;2023-03-25T16:07:03;4.53;;;0.97;;
5493;SDS011;2769;49.864;8.656;2023-03-25T16:09:32;2.07;;;0.90;;
5493;SDS011;2769;49.864;8.656;2023-03-25T16:12:07;4.30;;;1.43;;
5493;SDS011;2769;49.864;8.656;2023-03-25T16:14:39;3.70;;;1.00;;
5493;SDS011;2769;49.864;8.656;2023-03-25T16:17:09;4.20;;;1.10;;